Time;durP1;ratioP1;P1;durP2;ratioP2;P2;SDS_P1;SDS_P2;PMS_P1;PMS_P2;Temp;Humidity;BMP_temperature;BMP_pressure;BME280_temperature;BME280_humidity;BME280_pressure;Samples;Min_cycle;Max_cycle;Signal;HPM_P1;HPM_P2
2022/01/17 00:01:35;;;;;;;22.45;13.15;;;8.20;99.90;;;;;;5052798;28;20021;-75
2022/01/17 00:04:01;;;;;;;25.88;12.32;;;8.30;99.90;;;;;;5052976;28;20025;-75
2022/01/17 00:06:26;;;;;;;22.60;12.60;;;8.30;99.90;;;;;;5053055;28;20111;-73
2022/01/17 00:08:52;;;;;;;25.00;12.93;;;8.30;99.90;;;;;;5034988;28;20049;-75
2022/01/17 00:11:19;;;;;;;22.90;12.25;;;8.40;99.90;;;;;;5052823;28;20502;-75
2022/01/17 00:13:47;;;;;;;28.42;14.05;;;8.40;99.90;;;;;;5053037;28;20029;-75
2022/01/17 00:16:28;;;;;;;23.75;12.02;;;8.40;99.90;;;;;;5052994;28;20039;-75
2022/01/17 00:19:17;;;;;;;24.85;14.43;;;8.40;99.90;;;;;;5052974;28;20021;-74
2022/01/17 00:21:41;;;;;;;18.70;11.45;;;8.50;99.90;;;;;;5052441;28;20033;-74
2022/01/17 00:24:08;;;;;;;19.48;11.82;;;8.50;99.90;;;;;;5052780;28;20542;-75
2022/01/17 00:26:34;;;;;;;27.10;13.25;;;8.50;99.90;;;;;;5052565;28;20021;-74
2022/01/17 00:29:00;;;;;;;21.40;12.00;;;8.50;99.90;;;;;;5052752;28;20435;-75
2022/01/17 00:31:25;;;;;;;32.65;13.70;;;8.50;99.90;;;;;;5056381;28;20483;-75
2022/01/17 00:33:51;;;;;;;41.47;14.70;;;8.50;99.90;;;;;;5056351;28;20048;-73
2022/01/17 00:36:16;;;;;;;22.02;13.40;;;8.50;99.90;;;;;;5056329;28;20505;-75
2022/01/17 00:38:42;;;;;;;19.75;12.68;;;8.50;99.90;;;;;;5056240;28;20497;-75
2022/01/17 00:41:08;;;;;;;21.88;13.10;;;8.50;99.90;;;;;;5056190;28;20589;-75
2022/01/17 00:43:35;;;;;;;21.50;12.38;;;8.50;99.90;;;;;;5056096;28;20056;-75
2022/01/17 00:46:00;;;;;;;24.60;14.27;;;8.50;99.90;;;;;;5056378;28;20482;-74
2022/01/17 00:48:26;;;;;;;20.27;12.30;;;8.50;99.90;;;;;;5056328;28;20017;-73
2022/01/17 00:50:52;;;;;;;22.10;14.50;;;8.50;99.90;;;;;;5038160;28;20056;-74
2022/01/17 00:53:17;;;;;;;22.60;13.38;;;8.50;99.90;;;;;;5056258;28;20546;-74
2022/01/17 00:55:43;;;;;;;24.70;13.00;;;8.50;99.90;;;;;;5056493;28;20518;-75
2022/01/17 00:58:09;;;;;;;23.83;13.27;;;8.50;99.90;;;;;;5055847;28;20029;-75
2022/01/17 01:00:35;;;;;;;20.70;12.30;;;8.60;99.90;;;;;;5055810;28;20037;-75
2022/01/17 01:03:02;;;;;;;19.98;13.00;;;8.60;99.90;;;;;;5055600;28;20032;-74
2022/01/17 01:05:27;;;;;;;27.17;14.98;;;8.60;99.90;;;;;;5055904;28;20029;-75
2022/01/17 01:07:54;;;;;;;29.40;15.75;;;8.60;99.90;;;;;;5037727;28;20032;-75
2022/01/17 01:10:20;;;;;;;28.30;15.65;;;8.50;99.90;;;;;;5055565;28;20017;-75
2022/01/17 01:12:47;;;;;;;25.92;15.23;;;8.60;99.90;;;;;;5055762;28;20048;-74
2022/01/17 01:15:20;;;;;;;22.42;14.40;;;8.60;99.90;;;;;;5055593;28;20025;-75
2022/01/17 01:28:32;;;;;;;25.60;13.60;;;8.70;99.90;;;;;;5055836;28;20032;-75
2022/01/17 01:31:01;;;;;;;31.50;15.50;;;8.70;99.90;;;;;;5055445;28;20036;-75
2022/01/17 01:33:31;;;;;;;22.00;12.80;;;8.80;99.90;;;;;;5055764;28;20075;-75
2022/01/17 01:36:08;;;;;;;19.67;12.95;;;8.70;99.90;;;;;;5037055;28;20108;-74
2022/01/17 01:38:36;;;;;;;23.05;13.43;;;8.60;99.90;;;;;;5055174;28;20029;-75
2022/01/17 01:41:01;;;;;;;22.52;13.25;;;8.50;99.90;;;;;;5054107;28;20479;-75
2022/01/17 01:43:27;;;;;;;23.98;13.43;;;8.50;99.90;;;;;;5055209;28;20063;-75
2022/01/17 01:46:01;;;;;;;25.83;14.20;;;8.60;99.90;;;;;;5054948;28;20025;-74
2022/01/17 01:48:29;;;;;;;24.42;15.02;;;8.60;99.90;;;;;;5054980;28;20032;-74
2022/01/17 01:50:55;;;;;;;26.40;14.90;;;8.60;99.90;;;;;;5055158;28;20017;-76
2022/01/17 01:53:23;;;;;;;21.05;12.27;;;8.60;99.90;;;;;;5055144;28;20017;-75
2022/01/17 01:55:51;;;;;;;27.65;14.05;;;8.60;99.90;;;;;;5054779;28;20056;-75
2022/01/17 01:58:17;;;;;;;20.83;12.57;;;8.70;99.90;;;;;;5054751;28;20032;-75
2022/01/17 02:00:43;;;;;;;25.35;13.88;;;8.70;99.90;;;;;;5054964;28;20021;-75
2022/01/17 02:03:08;;;;;;;31.08;14.43;;;8.60;99.90;;;;;;5054771;28;20063;-75
2022/01/17 02:05:34;;;;;;;22.15;13.57;;;8.40;99.90;;;;;;5055031;28;20420;-75
2022/01/17 02:08:00;;;;;;;29.67;18.55;;;8.30;99.90;;;;;;5055104;28;20083;-75
2022/01/17 02:10:26;;;;;;;22.33;13.95;;;8.30;99.90;;;;;;5054451;28;20471;-75
2022/01/17 02:12:51;;;;;;;18.23;12.15;;;8.30;99.90;;;;;;5054068;28;20506;-75
2022/01/17 02:15:17;;;;;;;15.43;11.20;;;8.30;99.90;;;;;;5054369;28;20032;-74
2022/01/17 02:17:54;;;;;;;19.70;11.35;;;8.40;99.90;;;;;;5054622;28;20029;-74
2022/01/17 02:20:23;;;;;;;19.95;11.07;;;8.40;99.90;;;;;;5036186;28;20056;-74
2022/01/17 02:22:52;;;;;;;20.80;11.50;;;8.40;99.90;;;;;;5054230;28;20040;-73
2022/01/17 02:25:18;;;;;;;19.02;12.68;;;8.40;99.90;;;;;;5054124;28;20032;-75
2022/01/17 02:27:45;;;;;;;22.15;12.07;;;8.40;99.90;;;;;;5054729;28;20067;-75
2022/01/17 02:30:16;;;;;;;18.90;11.40;;;8.40;99.90;;;;;;5054150;28;20032;-75
2022/01/17 02:32:42;;;;;;;15.23;10.43;;;8.50;99.90;;;;;;5036249;28;20458;-75
2022/01/17 02:35:17;;;;;;;19.48;11.48;;;8.60;99.90;;;;;;5053977;28;20056;-76
2022/01/17 02:37:43;;;;;;;18.98;11.80;;;8.60;99.90;;;;;;5054000;28;20098;-75
2022/01/17 02:40:09;;;;;;;20.27;11.07;;;8.60;99.90;;;;;;5053944;28;20103;-76
2022/01/17 02:42:36;;;;;;;15.63;10.73;;;8.60;99.90;;;;;;5054118;28;20029;-76
2022/01/17 02:45:11;;;;;;;19.70;10.35;;;8.60;99.90;;;;;;5035825;28;20025;-74
2022/01/17 02:47:37;;;;;;;18.13;10.75;;;8.60;99.90;;;;;;5053850;28;20032;-75
2022/01/17 02:50:04;;;;;;;16.27;9.63;;;8.70;99.90;;;;;;5054038;28;20490;-74
2022/01/17 02:52:29;;;;;;;17.50;9.65;;;8.70;99.90;;;;;;5035678;28;20513;-74
2022/01/17 02:54:55;;;;;;;19.90;11.88;;;8.70;99.90;;;;;;5053657;28;20017;-75
2022/01/17 02:57:21;;;;;;;17.40;10.63;;;8.70;99.90;;;;;;5053903;28;20430;-75
2022/01/17 02:59:46;;;;;;;19.65;10.77;;;8.70;99.90;;;;;;5053576;28;20021;-74
2022/01/17 03:02:12;;;;;;;18.67;11.00;;;8.70;99.90;;;;;;5053576;28;20028;-74
2022/01/17 03:04:37;;;;;;;16.88;9.90;;;8.70;99.90;;;;;;5053884;28;20109;-75
2022/01/17 03:07:03;;;;;;;23.45;10.88;;;8.70;99.90;;;;;;5053729;28;20070;-74
2022/01/17 03:09:36;;;;;;;19.50;11.32;;;8.80;99.90;;;;;;5053957;28;20028;-74
2022/01/17 03:12:02;;;;;;;19.65;11.07;;;8.80;99.90;;;;;;5053206;28;20037;-74
2022/01/17 03:14:28;;;;;;;21.13;12.45;;;8.80;99.90;;;;;;5035441;28;20119;-74
2022/01/17 03:16:55;;;;;;;17.48;10.50;;;8.80;99.90;;;;;;5053553;28;20025;-75
2022/01/17 03:19:21;;;;;;;20.77;11.23;;;8.80;99.90;;;;;;5053759;28;20025;-74
2022/01/17 03:21:47;;;;;;;18.88;10.32;;;8.80;99.90;;;;;;5053231;28;20155;-75
2022/01/17 03:24:12;;;;;;;20.13;10.65;;;8.70;99.90;;;;;;5053147;28;20418;-75
2022/01/17 03:26:38;;;;;;;20.98;11.63;;;8.70;99.90;;;;;;5053439;28;20028;-75
2022/01/17 03:29:04;;;;;;;25.42;12.15;;;8.80;99.90;;;;;;5053177;28;20032;-74
2022/01/17 03:31:30;;;;;;;22.10;10.15;;;8.80;99.90;;;;;;5053163;28;20470;-75
2022/01/17 03:33:56;;;;;;;22.20;12.45;;;8.80;99.90;;;;;;5053131;28;20048;-75
2022/01/17 03:36:21;;;;;;;24.55;11.05;;;8.80;99.90;;;;;;5053316;28;20029;-74
2022/01/17 03:38:47;;;;;;;16.30;10.60;;;8.80;99.90;;;;;;5053021;28;20456;-75
2022/01/17 03:41:14;;;;;;;22.60;10.52;;;8.80;99.90;;;;;;5053018;28;20513;-75
2022/01/17 03:43:40;;;;;;;23.98;12.50;;;8.90;99.90;;;;;;5052912;28;20056;-74
2022/01/17 03:46:06;;;;;;;20.35;11.95;;;8.80;99.90;;;;;;5052997;28;20025;-74
2022/01/17 03:48:33;;;;;;;19.67;10.63;;;8.80;99.90;;;;;;5052949;28;20025;-75
2022/01/17 03:51:00;;;;;;;23.77;10.90;;;8.80;99.90;;;;;;5052926;28;20021;-74
2022/01/17 03:53:27;;;;;;;20.17;10.32;;;8.80;99.90;;;;;;5052958;28;20064;-74
2022/01/17 03:55:54;;;;;;;17.60;10.70;;;8.80;99.90;;;;;;5052874;28;20479;-75
2022/01/17 03:58:21;;;;;;;21.13;11.45;;;8.80;99.90;;;;;;5052856;28;20092;-75
2022/01/17 04:00:48;;;;;;;19.92;11.27;;;8.80;99.90;;;;;;5034982;28;20037;-74
2022/01/17 04:03:14;;;;;;;20.50;11.32;;;8.80;99.90;;;;;;5052927;28;20021;-75
2022/01/17 04:05:40;;;;;;;17.95;11.68;;;8.80;99.90;;;;;;5055950;28;20086;-75
2022/01/17 04:08:07;;;;;;;21.45;11.68;;;8.80;99.90;;;;;;5057087;28;20104;-74
2022/01/17 04:10:32;;;;;;;20.10;11.27;;;8.80;99.90;;;;;;5056804;28;20074;-76
2022/01/17 04:13:03;;;;;;;23.17;12.15;;;8.80;99.90;;;;;;5056361;28;20124;-75
2022/01/17 04:15:31;;;;;;;24.65;10.63;;;8.80;99.90;;;;;;5038552;28;20033;-75
2022/01/17 04:17:57;;;;;;;22.33;10.93;;;8.80;99.90;;;;;;5056780;28;20150;-74
2022/01/17 04:20:27;;;;;;;21.95;12.27;;;8.80;99.90;;;;;;5056596;28;20108;-75
2022/01/17 04:22:54;;;;;;;21.38;11.35;;;8.80;99.90;;;;;;5057124;28;20148;-74
2022/01/17 04:25:21;;;;;;;22.08;11.63;;;8.80;99.90;;;;;;5056334;28;20041;-75
2022/01/17 04:27:48;;;;;;;18.13;10.60;;;8.80;99.90;;;;;;5056449;28;20013;-75
2022/01/17 04:30:15;;;;;;;18.33;10.10;;;8.80;99.90;;;;;;5056384;28;20028;-74
2022/01/17 04:32:42;;;;;;;18.38;10.68;;;8.80;99.90;;;;;;5056364;28;20131;-75
2022/01/17 04:35:09;;;;;;;20.98;11.73;;;8.80;99.90;;;;;;5056324;28;20482;-74
2022/01/17 04:37:36;;;;;;;25.80;12.68;;;8.80;99.90;;;;;;5056514;28;20032;-75
2022/01/17 04:40:02;;;;;;;22.52;11.52;;;8.80;99.90;;;;;;5056222;28;20086;-75
2022/01/17 04:42:28;;;;;;;24.08;13.90;;;8.80;99.90;;;;;;5056165;28;20483;-74
2022/01/17 04:45:08;;;;;;;25.13;14.50;;;8.80;99.90;;;;;;5056295;28;20025;-75
2022/01/17 04:47:36;;;;;;;28.88;18.48;;;8.80;99.90;;;;;;5056135;28;20021;-75
2022/01/17 04:50:05;;;;;;;34.65;25.05;;;8.80;99.90;;;;;;5056596;28;20033;-75
2022/01/17 04:52:30;;;;;;;37.75;25.88;;;8.80;99.90;;;;;;5055932;28;20025;-75
2022/01/17 04:55:00;;;;;;;26.33;14.27;;;8.80;99.90;;;;;;5056204;28;20029;-75
2022/01/17 04:57:26;;;;;;;46.35;34.67;;;8.80;99.90;;;;;;5055892;28;20017;-73
2022/01/17 04:59:52;;;;;;;35.80;21.63;;;8.70;99.90;;;;;;5056127;28;20040;-75
2022/01/17 05:02:18;;;;;;;36.80;17.30;;;8.70;99.90;;;;;;5055776;28;20029;-75
2022/01/17 05:04:45;;;;;;;20.30;13.30;;;8.70;99.90;;;;;;5055648;28;20033;-75
2022/01/17 05:07:12;;;;;;;19.80;10.10;;;8.70;99.90;;;;;;5055745;28;20013;-76
2022/01/17 05:09:39;;;;;;;20.60;11.35;;;8.70;99.90;;;;;;5055654;28;20021;-75
2022/01/17 05:12:06;;;;;;;17.38;11.02;;;8.80;99.90;;;;;;5055414;28;20119;-75
2022/01/17 05:14:32;;;;;;;35.13;21.00;;;8.80;99.90;;;;;;5055076;28;20116;-75
2022/01/17 05:17:21;;;;;;;17.15;10.77;;;8.80;99.90;;;;;;5054679;28;20033;-73
2022/01/17 05:19:49;;;;;;;16.02;10.75;;;8.80;99.90;;;;;;5055540;28;20029;-74
2022/01/17 05:22:16;;;;;;;27.60;12.43;;;8.80;99.90;;;;;;5055429;28;20025;-75
2022/01/17 05:24:42;;;;;;;15.55;10.13;;;8.80;99.90;;;;;;5055292;28;20028;-75
2022/01/17 05:27:07;;;;;;;16.27;10.35;;;8.80;99.90;;;;;;5055331;28;20378;-75
2022/01/17 05:29:33;;;;;;;16.58;10.68;;;8.80;99.90;;;;;;5055270;28;20025;-75
2022/01/17 05:31:59;;;;;;;15.55;10.27;;;8.80;99.90;;;;;;5055235;28;20096;-75
2022/01/17 05:34:24;;;;;;;17.83;10.52;;;8.80;99.90;;;;;;5055226;28;20560;-74
2022/01/17 05:36:50;;;;;;;15.88;11.00;;;8.80;99.90;;;;;;5055473;28;20025;-74
2022/01/17 05:39:16;;;;;;;17.45;11.35;;;8.90;99.90;;;;;;5055084;28;20029;-75
2022/01/17 05:41:42;;;;;;;16.02;9.98;;;8.90;99.90;;;;;;5055064;28;20024;-74
2022/01/17 05:44:08;;;;;;;19.13;11.55;;;8.80;99.90;;;;;;5055228;28;20040;-74
2022/01/17 05:46:34;;;;;;;17.48;11.10;;;8.80;99.90;;;;;;5054970;28;20017;-75
2022/01/17 05:48:59;;;;;;;16.33;10.25;;;8.80;99.90;;;;;;5054884;28;20060;-75
2022/01/17 05:51:25;;;;;;;18.33;10.98;;;8.80;99.90;;;;;;5054863;28;20020;-74
2022/01/17 05:53:50;;;;;;;15.45;10.38;;;8.80;99.90;;;;;;5055364;28;20104;-75
2022/01/17 05:56:16;;;;;;;19.05;10.82;;;8.70;99.90;;;;;;5055076;28;20092;-74
2022/01/17 05:58:42;;;;;;;13.82;9.30;;;8.70;99.90;;;;;;5054774;28;20479;-75
2022/01/17 06:01:09;;;;;;;28.83;10.48;;;8.70;99.90;;;;;;5055286;28;20021;-75
2022/01/17 06:03:35;;;;;;;35.13;11.05;;;8.70;99.90;;;;;;5054878;28;20049;-74
2022/01/17 06:06:03;;;;;;;22.60;10.18;;;8.60;99.90;;;;;;5054809;28;20059;-74
2022/01/17 06:08:29;;;;;;;17.55;8.82;;;8.60;99.90;;;;;;5055104;28;20044;-75
2022/01/17 06:10:55;;;;;;;25.63;10.05;;;8.60;99.90;;;;;;5054317;28;20047;-75
2022/01/17 06:13:21;;;;;;;24.25;10.38;;;8.60;99.90;;;;;;5036319;28;20578;-74
2022/01/17 06:15:47;;;;;;;18.95;9.85;;;8.60;99.90;;;;;;5054717;28;20100;-75
2022/01/17 06:18:13;;;;;;;13.68;8.95;;;8.60;99.90;;;;;;5054408;28;20055;-75
2022/01/17 06:20:38;;;;;;;18.08;9.82;;;8.60;99.90;;;;;;5054628;28;20047;-75
2022/01/17 06:23:04;;;;;;;13.95;8.95;;;8.60;99.90;;;;;;5054548;28;20041;-74
2022/01/17 06:25:30;;;;;;;15.85;9.70;;;8.60;99.90;;;;;;5054146;28;20109;-75
2022/01/17 06:27:55;;;;;;;15.48;10.27;;;8.60;99.90;;;;;;5053749;28;20386;-75
2022/01/17 06:30:21;;;;;;;22.25;12.35;;;8.60;99.90;;;;;;5054172;28;20025;-76
2022/01/17 06:32:47;;;;;;;19.75;12.88;;;8.50;99.90;;;;;;5054674;28;20036;-74
2022/01/17 06:35:12;;;;;;;30.27;13.80;;;8.60;99.90;;;;;;5054625;28;20021;-75
2022/01/17 06:37:39;;;;;;;19.63;11.70;;;8.60;99.90;;;;;;5053968;28;20364;-74
2022/01/17 06:40:07;;;;;;;20.02;12.45;;;8.60;99.90;;;;;;5053919;28;20108;-74
2022/01/17 06:42:34;;;;;;;34.33;14.85;;;8.60;99.90;;;;;;5054469;28;20029;-76
2022/01/17 06:45:04;;;;;;;41.80;20.45;;;8.60;99.90;;;;;;5053622;28;20036;-75
2022/01/17 06:47:34;;;;;;;22.13;13.50;;;8.60;99.90;;;;;;5054194;28;20448;-75
2022/01/17 06:50:00;;;;;;;17.08;11.25;;;8.60;99.90;;;;;;5053811;28;20037;-74
2022/01/17 06:52:26;;;;;;;19.02;10.77;;;8.60;99.90;;;;;;5054329;28;20029;-75
2022/01/17 06:54:52;;;;;;;21.63;9.90;;;8.60;99.90;;;;;;5053989;28;20021;-75
2022/01/17 06:57:18;;;;;;;15.85;10.55;;;8.60;99.90;;;;;;5053661;28;20095;-76
2022/01/17 06:59:44;;;;;;;13.70;9.10;;;8.60;99.90;;;;;;5053613;28;20028;-74
2022/01/17 07:02:10;;;;;;;19.42;10.93;;;8.60;99.90;;;;;;5053865;28;20028;-74
2022/01/17 07:04:36;;;;;;;14.32;10.07;;;8.60;99.90;;;;;;5053424;28;20029;-75
2022/01/17 07:07:03;;;;;;;14.43;9.38;;;8.60;99.90;;;;;;5053439;28;20082;-74
2022/01/17 07:09:30;;;;;;;19.85;10.55;;;8.60;99.90;;;;;;5053464;28;20387;-75
2022/01/17 07:11:59;;;;;;;14.25;9.45;;;8.60;99.90;;;;;;5053002;28;20094;-75
2022/01/17 07:14:26;;;;;;;18.83;11.38;;;8.60;99.90;;;;;;5053382;28;20394;-74
2022/01/17 07:16:52;;;;;;;14.93;10.02;;;8.60;99.90;;;;;;5053343;28;20106;-75
2022/01/17 07:19:19;;;;;;;17.80;10.32;;;8.60;99.90;;;;;;5053214;28;20545;-75
2022/01/17 07:21:45;;;;;;;14.00;9.45;;;8.60;99.90;;;;;;5053227;28;20021;-74
2022/01/17 07:24:10;;;;;;;15.23;10.68;;;8.60;99.90;;;;;;5053450;28;20036;-75
2022/01/17 07:26:36;;;;;;;14.90;11.00;;;8.60;99.90;;;;;;5053454;28;20017;-75
2022/01/17 07:29:08;;;;;;;24.48;13.05;;;8.60;99.90;;;;;;5053446;28;20104;-75
2022/01/17 07:31:37;;;;;;;17.35;11.60;;;8.60;99.90;;;;;;5053676;28;20017;-75
2022/01/17 07:34:04;;;;;;;20.17;12.48;;;8.60;99.90;;;;;;5053079;28;20086;-74
2022/01/17 07:36:30;;;;;;;21.38;12.40;;;8.60;99.90;;;;;;5053063;28;20020;-74
2022/01/17 07:38:57;;;;;;;17.75;11.48;;;8.60;99.90;;;;;;5052268;28;20033;-76
2022/01/17 07:41:23;;;;;;;19.13;12.25;;;8.60;99.90;;;;;;5052983;28;20386;-75
2022/01/17 07:43:50;;;;;;;20.40;10.98;;;8.60;99.90;;;;;;5035013;28;20037;-76
2022/01/17 07:46:31;;;;;;;20.77;12.82;;;8.60;99.90;;;;;;5052987;28;20043;-75
2022/01/17 07:49:04;;;;;;;16.52;10.63;;;8.60;99.90;;;;;;5053015;28;20025;-74
2022/01/17 07:51:30;;;;;;;16.80;11.02;;;8.60;99.90;;;;;;5034828;28;20491;-75
2022/01/17 07:53:57;;;;;;;15.57;10.98;;;8.60;99.90;;;;;;5052954;28;20033;-75
2022/01/17 07:56:24;;;;;;;17.35;12.13;;;8.60;99.90;;;;;;5052683;28;20025;-74
2022/01/17 07:58:50;;;;;;;17.50;11.52;;;8.60;99.90;;;;;;5053152;28;20033;-75
2022/01/17 08:01:16;;;;;;;20.25;13.20;;;8.60;99.90;;;;;;5053180;28;20027;-74
2022/01/17 08:03:41;;;;;;;20.30;13.90;;;8.60;99.90;;;;;;5052718;28;20470;-74
2022/01/17 08:06:08;;;;;;;20.92;14.00;;;8.60;99.90;;;;;;5060569;28;20024;-80
2022/01/17 08:08:34;;;;;;;21.48;13.75;;;8.70;99.90;;;;;;5071307;28;20092;-80
2022/01/17 08:10:59;;;;;;;17.00;11.48;;;8.70;99.90;;;;;;5056077;28;20079;-81
2022/01/17 08:13:25;;;;;;;18.20;11.38;;;8.60;99.90;;;;;;5053401;28;20463;-79
2022/01/17 08:15:51;;;;;;;15.52;10.50;;;8.70;99.90;;;;;;5034619;28;20040;-79
2022/01/17 08:18:17;;;;;;;16.20;11.27;;;8.60;99.90;;;;;;5052683;28;20029;-79
2022/01/17 08:20:43;;;;;;;19.35;12.35;;;8.70;99.90;;;;;;5052515;28;20029;-81
2022/01/17 08:23:10;;;;;;;39.78;27.60;;;8.60;99.90;;;;;;5052708;28;20021;-78
2022/01/17 08:25:36;;;;;;;34.60;26.65;;;8.70;99.90;;;;;;5065539;28;20394;-78
2022/01/17 08:28:02;;;;;;;39.65;29.33;;;8.70;99.90;;;;;;5073180;28;20517;-78
2022/01/17 08:30:29;;;;;;;30.25;20.67;;;8.70;99.90;;;;;;5072443;28;20017;-80
2022/01/17 08:32:55;;;;;;;27.67;18.50;;;8.70;99.90;;;;;;5072910;28;20020;-77
2022/01/17 08:35:21;;;;;;;20.73;15.10;;;8.70;99.90;;;;;;5043232;28;20393;-80
2022/01/17 08:37:47;;;;;;;22.23;13.65;;;8.70;99.90;;;;;;5052848;28;20029;-77
2022/01/17 08:40:14;;;;;;;26.27;18.75;;;8.80;99.90;;;;;;5059237;28;20039;-76
2022/01/17 08:42:40;;;;;;;33.38;25.90;;;8.80;99.90;;;;;;5058296;28;20029;-76
2022/01/17 08:45:08;;;;;;;28.10;20.83;;;8.80;99.90;;;;;;5063168;28;20404;-78
2022/01/17 08:47:33;;;;;;;25.15;18.00;;;8.80;99.90;;;;;;5048541;28;20025;-81
2022/01/17 08:49:59;;;;;;;23.52;18.73;;;8.80;99.90;;;;;;5052708;28;20482;-76
2022/01/17 08:52:25;;;;;;;18.10;12.15;;;8.90;99.90;;;;;;5056597;28;20092;-76
2022/01/17 08:54:53;;;;;;;17.77;11.43;;;8.90;99.90;;;;;;5056264;28;20163;-76
2022/01/17 08:57:19;;;;;;;20.27;12.63;;;8.90;99.90;;;;;;5070538;28;20398;-76
2022/01/17 08:59:45;;;;;;;25.25;14.90;;;8.90;99.90;;;;;;5075903;28;20033;-77
2022/01/17 09:02:12;;;;;;;30.70;17.20;;;8.90;99.90;;;;;;5075808;28;20033;-75
2022/01/17 09:04:41;;;;;;;22.38;14.73;;;8.90;99.90;;;;;;5055872;28;20056;-76
2022/01/17 09:07:10;;;;;;;28.95;20.98;;;8.90;99.90;;;;;;5057601;28;20088;-78
2022/01/17 09:09:38;;;;;;;23.13;14.90;;;8.90;99.90;;;;;;5056933;28;20025;-79
2022/01/17 09:12:05;;;;;;;24.98;14.68;;;9.00;99.90;;;;;;5063620;28;20503;-78
2022/01/17 09:14:31;;;;;;;19.60;10.93;;;9.00;99.90;;;;;;5056356;28;20037;-79
2022/01/17 09:16:56;;;;;;;26.08;11.80;;;9.00;99.90;;;;;;5061538;28;20035;-78
2022/01/17 09:19:22;;;;;;;18.50;11.00;;;9.00;99.90;;;;;;5075842;28;20037;-77
2022/01/17 09:21:48;;;;;;;20.35;10.30;;;9.00;99.90;;;;;;5057385;28;20029;-79
2022/01/17 09:24:13;;;;;;;21.35;12.80;;;9.10;99.90;;;;;;5065750;28;20037;-79
2022/01/17 09:26:39;;;;;;;17.85;11.48;;;9.10;99.90;;;;;;5075527;28;20348;-77
2022/01/17 09:29:05;;;;;;;19.08;10.63;;;9.10;99.90;;;;;;5067811;28;20075;-78
2022/01/17 09:31:31;;;;;;;20.85;10.73;;;9.10;99.90;;;;;;5075717;28;20064;-78
2022/01/17 09:33:57;;;;;;;19.15;10.25;;;9.20;99.90;;;;;;5075784;28;20017;-76
2022/01/17 09:36:25;;;;;;;18.75;9.77;;;9.30;99.90;;;;;;5075330;28;20099;-76
2022/01/17 09:38:51;;;;;;;18.67;10.00;;;9.40;99.90;;;;;;5075214;28;20044;-77
2022/01/17 09:41:18;;;;;;;16.33;9.07;;;9.40;99.90;;;;;;5058353;28;20040;-78
2022/01/17 09:43:44;;;;;;;15.90;9.55;;;9.40;99.90;;;;;;5062999;28;20025;-75
2022/01/17 09:46:10;;;;;;;16.55;9.98;;;9.40;99.90;;;;;;5055099;28;20077;-77
2022/01/17 09:48:39;;;;;;;16.08;9.98;;;9.40;99.90;;;;;;5054969;28;20027;-77
2022/01/17 09:52:04;;;;;;;17.33;10.50;;;9.40;99.90;;;;;;5059490;28;20104;-77
2022/01/17 09:53:59;;;;;;;15.02;9.18;;;9.50;99.90;;;;;;5043884;28;20510;-79
2022/01/17 09:56:26;;;;;;;17.92;9.35;;;9.60;99.90;;;;;;5054854;28;20497;-76
2022/01/17 09:58:52;;;;;;;14.50;9.13;;;9.60;99.90;;;;;;5054879;28;20046;-78
2022/01/17 10:01:18;;;;;;;15.75;9.55;;;9.60;99.90;;;;;;5056410;28;20067;-75
2022/01/17 10:03:46;;;;;;;15.73;9.02;;;9.70;99.90;;;;;;5053997;28;20025;-77
2022/01/17 10:06:12;;;;;;;18.95;9.02;;;9.80;99.90;;;;;;5059777;28;20390;-76
2022/01/17 10:08:37;;;;;;;16.30;9.15;;;9.80;99.90;;;;;;5065646;28;20014;-76
2022/01/17 10:11:13;;;;;;;18.25;9.50;;;9.90;99.90;;;;;;5061705;28;20489;-77
2022/01/17 10:13:44;;;;;;;16.35;10.55;;;9.90;99.90;;;;;;5056066;28;20048;-75
2022/01/17 10:16:23;;;;;;;22.77;11.93;;;9.90;99.90;;;;;;5071623;28;20537;-76
2022/01/17 10:18:54;;;;;;;27.10;12.55;;;9.90;99.90;;;;;;5054454;28;20083;-77
2022/01/17 10:21:32;;;;;;;18.77;10.75;;;10.00;99.90;;;;;;5049916;28;20040;-78
2022/01/17 10:37:14;;;;;;;22.95;13.23;;;10.30;99.90;;;;;;5072274;28;20060;-77
2022/01/17 10:40:06;;;;;;;22.10;13.70;;;10.30;99.90;;;;;;5062440;28;20452;-77
2022/01/17 10:42:43;;;;;;;18.60;11.68;;;10.30;99.90;;;;;;5057171;28;20024;-80
2022/01/17 10:45:11;;;;;;;18.48;9.50;;;10.30;99.90;;;;;;5035692;28;20114;-77
2022/01/17 10:47:39;;;;;;;19.77;10.57;;;10.20;99.90;;;;;;5053855;28;20028;-78
2022/01/17 10:50:36;;;;;;;16.65;10.32;;;10.30;99.90;;;;;;5073725;28;20055;-81
2022/01/17 10:53:11;;;;;;;15.82;10.50;;;10.40;99.90;;;;;;5051430;28;20440;-77
2022/01/17 10:55:55;;;;;;;21.13;10.93;;;10.40;99.90;;;;;;5073215;28;20155;-81
2022/01/17 10:58:25;;;;;;;19.90;11.73;;;10.40;99.90;;;;;;5055725;28;20154;-80
2022/01/17 11:00:55;;;;;;;18.00;10.38;;;10.50;99.90;;;;;;5065555;28;20044;-77
2022/01/17 11:03:26;;;;;;;18.25;9.95;;;10.50;99.90;;;;;;5068697;28;20036;-78
2022/01/17 11:05:54;;;;;;;22.35;10.77;;;10.60;99.90;;;;;;5063076;28;20482;-78
2022/01/17 11:08:23;;;;;;;17.38;9.40;;;10.60;99.90;;;;;;5059388;28;20498;-78
2022/01/17 11:10:50;;;;;;;20.52;11.30;;;10.60;99.90;;;;;;5053762;28;20025;-78
2022/01/17 11:13:19;;;;;;;18.85;10.07;;;10.60;99.90;;;;;;5060049;28;20025;-78
2022/01/17 11:15:49;;;;;;;17.75;11.02;;;10.70;99.90;;;;;;5053656;28;20025;-77
2022/01/17 11:18:18;;;;;;;;;;;10.70;99.90;;;;;;5059748;28;20111;-77
2022/01/17 11:20:45;;;;;;;16.85;10.30;;;10.70;99.90;;;;;;5066362;28;20387;-81
2022/01/17 11:23:11;;;;;;;18.20;10.05;;;10.70;99.90;;;;;;5060753;28;20037;-79
2022/01/17 11:25:42;;;;;;;17.85;10.93;;;10.70;99.90;;;;;;5060956;28;20097;-77
2022/01/17 11:28:08;;;;;;;18.23;10.32;;;10.60;99.90;;;;;;5073330;28;20147;-76
2022/01/17 11:30:35;;;;;;;20.73;10.48;;;10.60;99.90;;;;;;5073696;28;20017;-76
2022/01/17 11:33:04;;;;;;;18.85;10.43;;;10.60;99.90;;;;;;5073899;28;20078;-77
2022/01/17 11:35:32;;;;;;;17.48;10.38;;;10.70;99.90;;;;;;5055200;28;20032;-77
2022/01/17 11:38:00;;;;;;;17.10;8.95;;;10.70;99.90;;;;;;5055154;28;20436;-78
2022/01/17 11:40:30;;;;;;;14.75;8.73;;;10.70;99.90;;;;;;5073359;28;20020;-77
2022/01/17 11:42:58;;;;;;;16.05;8.77;;;10.80;99.90;;;;;;5073427;28;20096;-77
2022/01/17 11:45:23;;;;;;;14.55;8.02;;;10.80;99.90;;;;;;5073490;28;20370;-77
2022/01/17 11:47:53;;;;;;;10.85;7.35;;;10.80;99.90;;;;;;5073066;28;20029;-76
2022/01/17 11:50:43;;;;;;;13.50;7.93;;;10.80;99.90;;;;;;5073050;28;20211;-76
2022/01/17 11:53:11;;;;;;;14.97;8.27;;;10.80;99.90;;;;;;5054808;28;20513;-77
2022/01/17 11:55:41;;;;;;;11.70;6.43;;;10.70;99.90;;;;;;5073042;28;20025;-77
2022/01/17 11:58:25;;;;;;;12.30;6.80;;;10.60;99.90;;;;;;5072996;28;20048;-76
2022/01/17 12:00:57;;;;;;;12.02;7.22;;;10.50;99.90;;;;;;5073015;28;20037;-76
2022/01/17 12:03:27;;;;;;;10.93;6.20;;;10.40;99.90;;;;;;5072876;28;20509;-77
2022/01/17 12:06:05;;;;;;;11.32;5.68;;;10.30;99.90;;;;;;5072890;28;20064;-76
2022/01/17 12:08:31;;;;;;;7.90;4.45;;;10.20;99.90;;;;;;5073185;28;20039;-77
2022/01/17 12:11:03;;;;;;;8.60;4.45;;;10.10;99.90;;;;;;5072612;28;20548;-76
2022/01/17 12:13:42;;;;;;;10.88;6.45;;;10.10;99.90;;;;;;5072984;28;20074;-77
2022/01/17 12:18:50;;;;;;;11.75;5.65;;;10.00;99.90;;;;;;5072550;28;20107;-77
2022/01/17 12:21:20;;;;;;;9.50;4.68;;;10.10;99.90;;;;;;5073260;28;20120;-76
2022/01/17 12:23:46;;;;;;;14.45;5.90;;;10.00;99.90;;;;;;5072667;28;20032;-77
2022/01/17 12:26:31;;;;;;;10.85;5.43;;;10.00;99.90;;;;;;5074580;28;20028;-77
2022/01/17 12:28:59;;;;;;;8.57;4.90;;;10.00;99.90;;;;;;5076795;28;20020;-77
2022/01/17 12:31:45;;;;;;;10.00;5.40;;;10.10;99.90;;;;;;5076421;28;20021;-76
2022/01/17 12:34:14;;;;;;;11.05;5.10;;;10.10;99.90;;;;;;5076496;28;20029;-76
2022/01/17 12:36:41;;;;;;;9.43;4.80;;;10.00;99.90;;;;;;5076544;28;20025;-77
2022/01/17 12:39:22;;;;;;;9.38;4.70;;;10.10;99.90;;;;;;5076180;28;20158;-77
2022/01/17 12:41:52;;;;;;;9.85;4.93;;;10.20;99.90;;;;;;5076755;28;20028;-76
2022/01/17 12:44:26;;;;;;;8.37;4.10;;;10.20;99.90;;;;;;5076120;28;20021;-76
2022/01/17 12:47:11;;;;;;;8.98;3.83;;;10.30;99.90;;;;;;5076072;28;20071;-77
2022/01/17 12:49:37;;;;;;;9.13;3.90;;;10.30;99.90;;;;;;5074383;28;20036;-77
2022/01/17 12:52:03;;;;;;;12.23;4.18;;;10.30;99.90;;;;;;5076237;28;20021;-77
2022/01/17 12:54:33;;;;;;;8.80;4.03;;;10.30;99.90;;;;;;5075949;28;20024;-77
2022/01/17 12:57:01;;;;;;;5.78;2.80;;;10.30;99.90;;;;;;5075950;28;20035;-76
2022/01/17 12:59:27;;;;;;;5.10;2.50;;;10.40;99.90;;;;;;5075885;28;20419;-77
2022/01/17 13:01:58;;;;;;;6.05;2.88;;;10.30;99.90;;;;;;5075811;28;20063;-76
2022/01/17 13:04:25;;;;;;;8.77;2.83;;;10.30;99.90;;;;;;5075818;28;20158;-76
2022/01/17 13:06:52;;;;;;;6.22;2.88;;;10.30;99.90;;;;;;5075724;28;20020;-77
2022/01/17 13:09:24;;;;;;;6.68;2.80;;;10.30;99.90;;;;;;5075700;28;20020;-77